Time;durP1;ratioP1;P1;durP2;ratioP2;P2;SDS_P1;SDS_P2;PMS_P1;PMS_P2;Temp;Humidity;BMP_temperature;BMP_pressure;BME280_temperature;BME280_humidity;BME280_pressure;Samples;Min_cycle;Max_cycle;Signal;HPM_P1;HPM_P2
2022/09/23 00:01:17;;;;;;;11.03;6.80;;;;;;;-141.97;64.40;47546.00;5013263;28;20656;-87
2022/09/23 00:03:45;;;;;;;8.10;5.90;;;;;;;-141.97;63.53;47557.53;5013247;28;20682;-87
2022/09/23 00:06:17;;;;;;;8.80;6.00;;;;;;;-141.97;63.07;47555.59;5013209;28;20163;-86
2022/09/23 00:08:43;;;;;;;8.27;6.40;;;;;;;-141.97;62.81;47655.53;5012894;28;20171;-87
2022/09/23 00:11:14;;;;;;;8.83;6.40;;;;;;;-141.97;62.08;47538.28;5012995;28;20400;-86
2022/09/23 00:13:41;;;;;;;10.00;6.30;;;;;;;-141.97;61.60;47486.41;5012944;28;20165;-86
2022/09/23 00:16:10;;;;;;;8.37;6.47;;;;;;;-141.97;61.23;47549.84;5011148;28;20233;-86
2022/09/23 00:18:36;;;;;;;8.23;5.80;;;;;;;-141.97;61.22;47532.53;5013059;28;20167;-86
2022/09/23 00:21:04;;;;;;;7.57;6.23;;;;;;;-141.97;60.66;47530.59;5011235;28;20221;-87
2022/09/23 00:23:30;;;;;;;9.43;6.00;;;;;;;-141.97;60.79;47517.16;5012433;28;20228;-85
2022/09/23 00:26:01;;;;;;;8.40;6.37;;;;;;;-141.97;60.82;47559.44;5012591;28;20213;-86
2022/09/23 00:28:27;;;;;;;9.53;6.83;;;;;;;-141.97;60.84;47538.28;5011106;28;20568;-86
2022/09/23 00:30:52;;;;;;;8.37;6.50;;;;;;;-141.97;60.68;47532.53;5012711;28;20159;-86
2022/09/23 00:33:17;;;;;;;8.23;6.33;;;;;;;-141.97;60.74;47544.06;5013459;28;20289;-87
2022/09/23 00:35:43;;;;;;;7.80;6.27;;;;;;;-141.97;60.79;47592.13;5012510;28;20309;-86
2022/09/23 00:38:08;;;;;;;8.83;6.30;;;;;;;-141.97;60.58;47519.06;5012218;28;20205;-86
2022/09/23 00:40:35;;;;;;;10.77;6.30;;;;;;;-141.97;60.55;47546.00;5012344;28;20596;-86
2022/09/23 00:43:00;;;;;;;11.97;6.30;;;;;;;-141.97;60.44;47501.78;5012283;28;20162;-86
2022/09/23 00:45:27;;;;;;;7.50;6.10;;;;;;;-141.97;60.69;47557.53;5012305;28;20182;-87
2022/09/23 00:48:00;;;;;;;8.23;6.10;;;;;;;-141.97;60.46;47513.31;5016432;28;20188;-85
2022/09/23 00:50:41;;;;;;;8.70;6.20;;;;;;;-141.97;60.41;47565.22;5022766;28;20151;-87
2022/09/23 00:53:13;;;;;;;8.67;6.07;;;;;;;-141.97;60.18;47511.38;5014904;28;20162;-86
2022/09/23 00:55:47;;;;;;;8.93;6.50;;;;;;;-141.97;60.18;47561.38;5013807;28;20178;-87
2022/09/23 00:58:16;;;;;;;9.37;6.13;;;;;;;-141.97;59.80;47515.22;5012589;28;20182;-87
2022/09/23 01:00:42;;;;;;;9.23;6.47;;;;;;;-141.97;60.06;47474.88;5010891;28;20203;-86
2022/09/23 01:03:08;;;;;;;9.33;6.50;;;;;;;-141.97;59.86;47549.84;5012364;28;20630;-86
2022/09/23 01:05:35;;;;;;;9.73;5.93;;;;;;;-141.97;59.73;47542.16;5013956;28;20536;-86
2022/09/23 01:08:03;;;;;;;7.63;5.57;;;;;;;-141.97;59.86;47561.38;5016889;28;20231;-86
2022/09/23 01:10:58;;;;;;;8.50;5.83;;;;;;;-141.97;59.71;47553.69;5018905;28;20169;-86
2022/09/23 01:13:27;;;;;;;8.17;6.30;;;;;;;-141.97;59.44;47595.97;5015011;28;20178;-85
2022/09/23 01:16:03;;;;;;;8.53;6.30;;;;;;;-141.97;59.57;47578.66;5014766;28;20213;-86
2022/09/23 01:18:56;;;;;;;9.23;6.67;;;;;;;-141.97;59.78;47515.22;5018172;28;20181;-86
2022/09/23 01:21:30;;;;;;;8.57;5.53;;;;;;;-141.97;59.61;47546.00;5016392;28;20194;-85
2022/09/23 01:24:04;;;;;;;9.07;5.90;;;;;;;-141.97;59.76;47570.97;5017089;28;20236;-87
2022/09/23 01:26:47;;;;;;;8.50;6.00;;;;;;;-141.97;59.43;47536.38;5016562;28;20524;-87
2022/09/23 01:29:50;;;;;;;7.83;6.13;;;;;;;-141.97;59.54;47561.38;5018647;28;20257;-85
2022/09/23 01:32:21;;;;;;;10.13;6.10;;;;;;;-141.97;59.34;47553.69;5019081;28;20182;-87
2022/09/23 01:35:03;;;;;;;8.00;6.27;;;;;;;-141.97;59.34;47567.13;5017413;28;20171;-88
2022/09/23 01:37:45;;;;;;;8.13;5.70;;;;;;;-141.97;59.56;47511.38;5016471;28;20182;-85
2022/09/23 01:40:17;;;;;;;8.30;6.10;;;;;;;-141.97;59.82;47565.22;5016580;28;20309;-86
2022/09/23 01:42:47;;;;;;;8.43;6.27;;;;;;;-141.97;60.01;47513.31;5015111;28;20178;-87
2022/09/23 01:45:12;;;;;;;8.50;6.37;;;;;;;-141.97;59.97;47569.06;5016503;28;20158;-86
2022/09/23 01:47:48;;;;;;;11.43;6.63;;;;;;;-141.97;60.18;47538.28;5016113;28;20173;-86
2022/09/23 01:53:09;;;;;;;9.13;6.60;;;;;;;-141.97;60.79;47542.16;5016507;28;20181;-86
2022/09/23 01:55:41;;;;;;;10.37;6.70;;;;;;;-141.97;61.04;47538.28;5015371;28;20175;-85
2022/09/23 01:58:18;;;;;;;9.50;6.97;;;;;;;-141.97;61.48;47542.16;5015020;28;20171;-85
2022/09/23 02:00:54;;;;;;;7.97;6.37;;;;;;;-141.97;61.58;47569.06;5016249;28;20230;-87
2022/09/23 02:03:31;;;;;;;9.97;7.07;;;;;;;-141.97;61.51;47638.25;5022401;28;20171;-86
2022/09/23 02:06:08;;;;;;;9.03;6.47;;;;;;;-141.97;61.54;47519.06;5015872;28;20158;-86
2022/09/23 02:08:43;;;;;;;9.33;6.70;;;;;;;-141.97;61.82;47567.13;5015210;28;20170;-86
2022/09/23 02:11:14;;;;;;;8.67;6.97;;;;;;;-141.97;62.05;47538.28;5015288;28;20171;-86
2022/09/23 02:13:54;;;;;;;9.33;6.97;;;;;;;-141.97;61.79;47526.75;5015861;28;20174;-86
2022/09/23 02:16:20;;;;;;;9.47;6.70;;;;;;;-141.97;62.24;47557.53;5016143;28;20306;-87
2022/09/23 02:18:58;;;;;;;10.97;6.77;;;;;;;-141.97;62.38;47542.16;5015940;28;20170;-88
2022/09/23 02:21:32;;;;;;;10.17;6.90;;;;;;;-141.97;62.55;47549.84;5016432;28;20193;-88
2022/09/23 02:24:07;;;;;;;10.43;7.07;;;;;;;-141.97;62.88;47494.09;5016281;28;20159;-86
2022/09/23 02:26:38;;;;;;;11.10;7.43;;;;;;;-141.97;63.09;47467.19;5015287;28;20155;-87
2022/09/23 02:29:40;;;;;;;10.73;7.30;;;;;;;-141.97;63.36;47574.81;5015084;28;20170;-89
2022/09/23 02:32:18;;;;;;;10.87;7.03;;;;;;;-141.97;63.91;47542.16;4992810;28;20186;-87
2022/09/23 02:35:05;;;;;;;11.43;7.20;;;;;;;-141.97;64.37;47532.53;4992890;28;20182;-86
2022/09/23 02:37:46;;;;;;;10.63;7.17;;;;;;;-141.97;64.57;47572.91;4993130;28;20254;-83
2022/09/23 02:40:30;;;;;;;10.37;7.03;;;;;;;-141.97;64.73;47538.28;4992762;28;20187;-85
2022/09/23 02:43:01;;;;;;;10.50;7.27;;;;;;;-141.97;65.22;47515.22;4992810;28;20191;-85
2022/09/23 02:45:27;;;;;;;11.17;8.00;;;;;;;-141.97;64.93;47574.81;4993014;28;20683;-86
2022/09/23 02:48:01;;;;;;;10.83;7.83;;;;;;;-141.97;65.37;47546.00;4993316;28;20247;-86
2022/09/23 02:50:27;;;;;;;10.70;7.67;;;;;;;-141.97;65.41;47559.44;4993320;28;20278;-85
2022/09/23 02:52:53;;;;;;;10.97;8.00;;;;;;;-141.97;65.72;47569.06;4993305;28;20250;-86
2022/09/23 02:55:22;;;;;;;11.80;8.07;;;;;;;-141.97;65.47;47561.38;4992947;28;20222;-86
2022/09/23 02:57:47;;;;;;;11.87;8.13;;;;;;;-141.97;65.66;47565.22;4993363;28;20184;-86
2022/09/23 03:00:13;;;;;;;11.23;7.90;;;;;;;-141.97;65.58;47511.38;4993091;28;20266;-87
2022/09/23 03:03:03;;;;;;;12.80;8.63;;;;;;;-141.97;64.92;47551.75;4993368;28;20191;-86
2022/09/23 03:05:34;;;;;;;11.17;8.20;;;;;;;-141.97;64.46;47574.81;4993326;28;20175;-86
2022/09/23 03:08:35;;;;;;;10.27;7.40;;;;;;;-141.97;65.00;47521.00;4981927;28;20270;-86
2022/09/23 03:11:10;;;;;;;11.67;8.13;;;;;;;-141.97;65.41;47540.22;5014908;28;20522;-86
2022/09/23 03:14:05;;;;;;;10.43;7.80;;;;;;;-141.97;66.13;47576.75;5013989;28;20155;-86
2022/09/23 03:16:51;;;;;;;11.60;8.40;;;;;;;-141.97;66.81;47569.06;5012776;28;20229;-85
2022/09/23 03:19:45;;;;;;;12.33;8.43;;;;;;;-141.97;66.74;47549.84;4992117;28;20229;-86
2022/09/23 03:22:17;;;;;;;9.97;7.47;;;;;;;-141.97;66.95;47576.75;4992487;28;20171;-86
2022/09/23 03:24:46;;;;;;;12.27;7.93;;;;;;;-141.97;67.23;47547.91;4993361;28;20660;-86
2022/09/23 03:27:16;;;;;;;11.80;7.77;;;;;;;-141.97;67.90;47559.44;4984687;28;20282;-86
2022/09/23 03:29:46;;;;;;;10.60;7.43;;;;;;;-141.97;68.51;47521.00;5000978;28;20222;-87
2022/09/23 03:32:14;;;;;;;15.40;8.03;;;;;;;-141.97;68.45;47538.28;4992341;28;20172;-86
2022/09/23 03:34:42;;;;;;;12.57;8.23;;;;;;;-141.97;68.69;47519.06;4992460;28;20172;-86
2022/09/23 03:37:26;;;;;;;14.30;8.70;;;;;;;-141.97;68.53;47511.38;4993476;28;20247;-86
2022/09/23 03:40:15;;;;;;;15.50;7.97;;;;;;;-141.97;67.93;47557.53;4992482;28;20195;-86
2022/09/23 03:42:41;;;;;;;17.00;8.50;;;;;;;-141.97;67.62;47526.75;4991744;28;20291;-87
2022/09/23 03:45:15;;;;;;;14.90;8.83;;;;;;;-141.97;67.39;47538.28;4991862;28;20164;-85
2022/09/23 03:47:41;;;;;;;14.57;8.73;;;;;;;-141.97;67.26;47542.16;4992664;28;20167;-86
2022/09/23 03:50:07;;;;;;;15.10;9.33;;;;;;;-141.97;67.10;47549.84;4993250;28;20543;-85
2022/09/23 03:52:32;;;;;;;13.90;8.80;;;;;;;-141.97;67.26;47557.53;4992620;28;20176;-87
2022/09/23 03:54:57;;;;;;;14.77;9.53;;;;;;;-141.97;67.84;47486.41;4993341;28;20632;-86
2022/09/23 03:57:23;;;;;;;14.83;9.80;;;;;;;-141.97;67.75;47522.91;5011179;28;20202;-86
2022/09/23 03:59:49;;;;;;;14.33;9.37;;;;;;;-141.97;67.50;47522.91;5014141;28;20175;-86
2022/09/23 04:02:16;;;;;;;16.80;10.07;;;;;;;-141.97;67.54;47419.13;5014057;28;20193;-86
2022/09/23 04:04:42;;;;;;;16.23;9.63;;;;;;;-141.97;67.63;47565.22;5014770;28;20685;-85
2022/09/23 04:07:08;;;;;;;14.93;9.43;;;;;;;-141.97;67.92;47499.84;5014123;28;20226;-84
2022/09/23 04:09:34;;;;;;;18.57;9.30;;;;;;;-141.97;67.91;47557.53;5016082;28;20241;-86
2022/09/23 04:12:00;;;;;;;15.80;9.70;;;;;;;-141.97;68.13;47522.91;5014058;28;20155;-86
2022/09/23 04:14:25;;;;;;;16.37;9.80;;;;;;;-141.97;68.21;47538.28;5013165;28;20177;-86
2022/09/23 04:16:51;;;;;;;16.03;9.50;;;;;;;-141.97;68.40;47578.66;5014184;28;20226;-87
2022/09/23 04:19:17;;;;;;;17.00;9.63;;;;;;;-141.97;68.40;47549.84;5013738;28;20166;-86
2022/09/23 04:21:43;;;;;;;15.80;10.93;;;;;;;-141.97;68.28;47546.00;5013111;28;20194;-86
2022/09/23 04:24:10;;;;;;;16.90;10.03;;;;;;;-141.97;68.76;47524.84;5013786;28;20225;-86
2022/09/23 04:26:37;;;;;;;17.37;10.20;;;;;;;-141.97;68.75;47503.69;5012170;28;20170;-86
2022/09/23 04:29:03;;;;;;;19.70;10.07;;;;;;;-141.97;68.43;47546.00;5013364;28;20221;-86
2022/09/23 04:31:30;;;;;;;13.73;9.73;;;;;;;-141.97;68.26;47553.69;5013625;28;20155;-86
2022/09/23 04:33:56;;;;;;;16.60;10.17;;;;;;;-141.97;68.58;47547.91;5013246;28;20175;-86
2022/09/23 04:36:22;;;;;;;17.40;9.93;;;;;;;-141.97;68.98;47540.22;5013134;28;20159;-85
2022/09/23 04:38:49;;;;;;;14.70;8.73;;;;;;;-141.97;69.63;47532.53;5013019;28;20499;-86
2022/09/23 04:41:15;;;;;;;16.17;9.90;;;;;;;-141.97;69.25;47465.25;5011895;28;20191;-85
2022/09/23 04:43:41;;;;;;;18.23;11.37;;;;;;;-141.97;69.31;47565.22;5016687;28;20261;-85
2022/09/23 04:46:09;;;;;;;14.60;9.97;;;;;;;-141.97;69.00;47557.53;5024453;28;20174;-86
2022/09/23 04:48:37;;;;;;;11.63;8.47;;;;;;;-141.97;68.39;47565.22;5017423;28;20163;-86
2022/09/23 04:51:15;;;;;;;12.53;7.63;;;;;;;-141.97;68.03;47517.16;5013684;28;20242;-86
2022/09/23 04:53:42;;;;;;;16.97;9.57;;;;;;;-141.97;67.92;47553.69;5013310;28;20650;-85
2022/09/23 04:56:13;;;;;;;14.17;9.80;;;;;;;-141.97;67.52;47538.28;5013448;28;20151;-87
2022/09/23 04:58:40;;;;;;;13.27;8.87;;;;;;;-141.97;67.62;47599.81;5013237;28;20167;-86
2022/09/23 05:01:18;;;;;;;16.27;9.80;;;;;;;-141.97;67.55;47559.44;5012852;28;20201;-86
2022/09/23 05:03:44;;;;;;;15.27;9.77;;;;;;;-141.97;66.88;47567.13;5012759;28;20162;-85
2022/09/23 05:06:12;;;;;;;17.83;9.53;;;;;;;-141.97;66.37;47522.91;5012572;28;20245;-86
2022/09/23 05:08:39;;;;;;;16.00;8.70;;;;;;;-141.97;65.63;47542.16;5012254;28;20163;-87
2022/09/23 05:11:05;;;;;;;20.30;9.63;;;;;;;-141.97;65.26;47534.44;5012128;28;20194;-86
2022/09/23 05:13:31;;;;;;;12.33;6.77;;;;;;;-141.97;64.57;47549.84;5012853;28;20198;-86
2022/09/23 05:15:58;;;;;;;21.30;8.80;;;;;;;-141.97;64.51;47532.53;5012567;28;20241;-87
2022/09/23 05:18:23;;;;;;;11.57;7.60;;;;;;;-141.97;64.48;47557.53;5013199;28;20166;-86
2022/09/23 05:20:55;;;;;;;10.93;7.47;;;;;;;-141.97;63.96;47530.59;5013052;28;20248;-86
2022/09/23 05:23:24;;;;;;;10.27;6.43;;;;;;;-141.97;63.67;47540.22;5013269;28;20167;-86
2022/09/23 05:26:01;;;;;;;12.03;7.73;;;;;;;-141.97;63.39;47522.91;5011701;28;20179;-86
2022/09/23 05:28:30;;;;;;;10.13;6.33;;;;;;;-141.97;63.35;47467.19;5012861;28;20174;-86
2022/09/23 05:31:05;;;;;;;12.73;7.13;;;;;;;-141.97;62.58;47538.28;5012636;28;20171;-86
2022/09/23 05:33:33;;;;;;;10.53;7.47;;;;;;;-141.97;62.64;47561.38;5013033;28;20232;-86
2022/09/23 05:35:58;;;;;;;9.93;7.33;;;;;;;-141.97;61.64;47561.38;5012932;28;20516;-86
2022/09/23 05:38:24;;;;;;;12.73;8.27;;;;;;;-141.97;61.63;47544.06;5012531;28;20253;-86
2022/09/23 05:40:57;;;;;;;10.20;7.70;;;;;;;-141.97;60.94;47542.16;5012744;28;20663;-85
2022/09/23 05:43:23;;;;;;;11.63;7.93;;;;;;;-141.97;60.67;47515.22;5013293;28;20167;-86
2022/09/23 05:45:49;;;;;;;7.73;6.03;;;;;;;-141.97;60.27;47680.53;5013993;28;20639;-87
2022/09/23 05:48:15;;;;;;;9.63;7.40;;;;;;;-141.97;60.80;47584.44;5014007;28;20178;-85
2022/09/23 05:50:50;;;;;;;9.03;7.10;;;;;;;-141.97;59.66;47553.69;5013191;28;20175;-86
2022/09/23 05:53:17;;;;;;;11.07;7.23;;;;;;;-141.97;59.30;47594.03;5012623;28;20170;-85
2022/09/23 05:55:43;;;;;;;11.73;7.23;;;;;;;-141.97;59.62;47572.91;5018155;28;20193;-86
2022/09/23 05:58:09;;;;;;;10.17;6.83;;;;;;;-141.97;59.37;47553.69;5014424;28;20163;-86
2022/09/23 06:00:34;;;;;;;9.97;7.60;;;;;;;-141.97;59.22;47511.38;5013056;28;20281;-87
2022/09/23 06:02:59;;;;;;;10.60;6.83;;;;;;;-141.97;59.06;47561.38;5015381;28;20167;-85
2022/09/23 06:05:25;;;;;;;10.00;6.53;;;;;;;-141.97;58.98;47534.44;5016100;28;20268;-85
2022/09/23 06:07:50;;;;;;;10.97;7.50;;;;;;;-141.97;58.93;47565.22;5017100;28;20269;-85
2022/09/23 06:10:16;;;;;;;10.80;7.33;;;;;;;-141.97;59.04;47555.59;5017007;28;20159;-86
2022/09/23 06:12:43;;;;;;;11.77;7.73;;;;;;;-141.97;58.37;47478.72;5016601;28;20174;-86
2022/09/23 06:15:09;;;;;;;12.27;7.83;;;;;;;-141.97;58.56;47547.91;5017154;28;20296;-86
2022/09/23 06:17:34;;;;;;;13.80;8.10;;;;;;;-141.97;57.78;47561.38;5016603;28;20222;-86
2022/09/23 06:20:00;;;;;;;9.57;7.40;;;;;;;-141.97;57.78;47590.19;5017740;28;20277;-87
2022/09/23 06:22:25;;;;;;;9.37;5.97;;;;;;;-141.97;57.23;47567.13;5017411;28;20241;-86
2022/09/23 06:24:51;;;;;;;8.87;5.80;;;;;;;-141.97;56.58;47557.53;5016491;28;20627;-86
2022/09/23 06:27:16;;;;;;;8.80;6.53;;;;;;;-141.97;56.80;47638.25;5015722;28;20158;-86
2022/09/23 06:29:42;;;;;;;8.63;6.97;;;;;;;-141.97;56.27;47576.75;5016238;28;20159;-85
2022/09/23 06:32:08;;;;;;;7.67;6.53;;;;;;;-141.97;55.70;47521.00;5016373;28;20151;-87
2022/09/23 06:34:33;;;;;;;10.23;6.67;;;;;;;-141.97;55.38;47542.16;5019547;28;20166;-87
2022/09/23 06:36:59;;;;;;;9.43;7.00;;;;;;;-141.97;54.63;47490.25;5017217;28;20187;-86
2022/09/23 06:39:24;;;;;;;10.07;7.23;;;;;;;-141.97;54.58;47465.25;5016812;28;20163;-86
2022/09/23 06:41:50;;;;;;;8.83;6.53;;;;;;;-141.97;54.39;47569.06;5015387;28;20202;-86
2022/09/23 06:44:15;;;;;;;10.20;7.00;;;;;;;-141.97;53.90;47544.06;5017813;28;20171;-86
2022/09/23 06:46:41;;;;;;;6.80;5.37;;;;;;;-141.97;53.33;47547.91;5018509;28;20162;-86
2022/09/23 06:49:06;;;;;;;8.70;6.20;;;;;;;-141.97;53.41;47534.44;5019744;28;20169;-86
2022/09/23 06:51:32;;;;;;;7.47;6.03;;;;;;;-141.97;52.92;47557.53;5015885;28;20189;-86
2022/09/23 06:53:58;;;;;;;7.67;5.53;;;;;;;-141.97;53.07;47538.28;5014751;28;20182;-86
2022/09/23 06:56:23;;;;;;;8.93;6.10;;;;;;;-141.97;53.51;47567.13;5016007;28;20653;-84
2022/09/23 06:58:50;;;;;;;8.53;5.97;;;;;;;-141.97;52.82;47538.28;5019163;28;20166;-85
2022/09/23 07:01:16;;;;;;;10.43;6.93;;;;;;;-141.97;53.53;47549.84;5018597;28;20599;-85
2022/09/23 07:03:43;;;;;;;10.60;6.63;;;;;;;-141.97;53.29;47536.38;5016825;28;20167;-86
2022/09/23 07:06:09;;;;;;;11.10;6.50;;;;;;;-141.97;53.00;47570.97;5018961;28;20158;-85
2022/09/23 07:08:35;;;;;;;11.83;6.93;;;;;;;-141.97;51.79;47524.84;5017535;28;20174;-86
2022/09/23 07:11:04;;;;;;;9.10;6.00;;;;;;;-141.97;51.78;47572.91;5017680;28;20217;-86
2022/09/23 07:13:32;;;;;;;7.97;5.87;;;;;;;-141.97;51.33;47670.91;5013978;28;20163;-85
2022/09/23 07:16:00;;;;;;;6.80;5.00;;;;;;;-141.97;50.20;47480.63;5014644;28;20241;-85
2022/09/23 07:18:28;;;;;;;9.17;5.73;;;;;;;-141.97;50.22;47563.28;5015216;28;20349;-85
2022/09/23 07:20:56;;;;;;;8.23;6.30;;;;;;;-141.97;49.48;47551.75;5015691;28;20201;-86
2022/09/23 07:23:22;;;;;;;9.83;6.00;;;;;;;-141.97;49.03;47565.22;5015481;28;20166;-87
2022/09/23 07:25:50;;;;;;;7.90;5.53;;;;;;;-141.97;48.58;47438.34;5014369;28;20233;-86
2022/09/23 07:28:17;;;;;;;9.17;6.07;;;;;;;-141.97;48.68;47492.16;5015094;28;20179;-86
2022/09/23 07:30:43;;;;;;;7.70;5.87;;;;;;;-141.97;47.75;47530.59;5016041;28;20143;-86
2022/09/23 07:33:09;;;;;;;7.47;5.80;;;;;;;-141.97;47.89;47680.53;5015948;28;20199;-86
2022/09/23 07:35:38;;;;;;;8.90;5.00;;;;;;;-141.97;46.92;47546.00;5014950;28;20543;-86
2022/09/23 07:38:04;;;;;;;7.00;5.23;;;;;;;-141.97;46.56;47519.06;5013878;28;20167;-85
2022/09/23 07:40:29;;;;;;;6.80;5.43;;;;;;;-141.97;46.29;47551.75;5013992;28;20194;-85
2022/09/23 07:42:54;;;;;;;9.33;5.00;;;;;;;-141.97;45.61;47517.16;5014942;28;20163;-85
2022/09/23 07:45:21;;;;;;;6.23;4.60;;;;;;;-141.97;45.97;47669.00;5014476;28;20573;-86
2022/09/23 07:47:46;;;;;;;6.33;5.23;;;;;;;-141.97;46.35;47480.63;5013733;28;20177;-86
2022/09/23 07:50:11;;;;;;;11.77;5.63;;;;;;;-141.97;45.78;47686.31;5045936;28;20546;-85
2022/09/23 07:52:38;;;;;;;9.27;5.60;;;;;;;-141.97;45.17;47542.16;5013857;28;20171;-85
2022/09/23 07:55:04;;;;;;;8.93;5.30;;;;;;;-141.97;44.34;47549.84;5013831;28;20623;-85
2022/09/23 07:57:30;;;;;;;6.10;4.37;;;;;;;-141.97;44.74;47546.00;5014171;28;20155;-85
2022/09/23 07:59:55;;;;;;;9.27;5.30;;;;;;;-141.97;44.33;47472.94;5014810;28;20179;-86
2022/09/23 08:02:21;;;;;;;6.73;5.40;;;;;;;-141.97;43.23;47499.84;5014981;28;20623;-86
2022/09/23 08:04:48;;;;;;;6.07;5.10;;;;;;;-141.97;43.18;47501.78;5014638;28;20167;-84
2022/09/23 08:07:13;;;;;;;6.53;5.20;;;;;;;-141.97;43.26;47718.97;5015009;28;20182;-86
2022/09/23 08:09:41;;;;;;;7.70;4.60;;;;;;;-141.97;42.83;47526.75;5014441;28;20166;-86
2022/09/23 08:12:08;;;;;;;6.07;4.53;;;;;;;-141.97;43.40;47522.91;5014549;28;20555;-86
2022/09/23 08:14:34;;;;;;;8.67;5.03;;;;;;;-141.97;42.21;47578.66;5014222;28;20654;-85
2022/09/23 08:16:59;;;;;;;6.67;4.60;;;;;;;-141.97;41.81;47678.63;5014084;28;20206;-85
2022/09/23 08:19:25;;;;;;;6.47;4.67;;;;;;;-141.97;42.05;47522.91;5014128;28;20171;-85
2022/09/23 08:21:51;;;;;;;8.10;5.00;;;;;;;-141.97;41.93;47546.00;5015115;28;20197;-85
2022/09/23 08:24:22;;;;;;;5.80;4.50;;;;;;;-141.97;42.11;47563.28;5013328;28;20596;-86
2022/09/23 08:26:48;;;;;;;5.00;4.30;;;;;;;-141.97;41.91;47619.03;5014243;28;20198;-86
2022/09/23 08:29:16;;;;;;;5.67;5.00;;;;;;;-141.97;41.84;47499.84;5014141;28;20162;-87
2022/09/23 08:31:42;;;;;;;6.03;4.50;;;;;;;-141.97;41.91;47526.75;5013470;28;20163;-87
2022/09/23 08:34:08;;;;;;;6.70;4.90;;;;;;;-141.97;40.29;47434.50;5020379;28;20171;-86
2022/09/23 08:36:34;;;;;;;5.67;4.73;;;;;;;-141.97;39.66;47519.06;5017344;28;20163;-86
2022/09/23 08:38:59;;;;;;;6.00;4.90;;;;;;;-141.97;39.65;47496.00;5014799;28;20246;-86
2022/09/23 08:41:32;;;;;;;5.93;5.17;;;;;;;-141.97;39.43;47538.28;5014759;28;20209;-86
2022/09/23 08:44:07;;;;;;;6.13;4.50;;;;;;;-141.97;39.02;47524.84;5014463;28;20190;-87
2022/09/23 08:47:06;;;;;;;5.43;4.20;;;;;;;-141.97;38.50;47492.16;5013842;28;20151;-86
2022/09/23 08:49:38;;;;;;;5.23;4.73;;;;;;;-141.97;39.33;47499.84;4992094;28;20210;-86
2022/09/23 08:52:23;;;;;;;7.03;4.83;;;;;;;-141.97;39.28;47472.94;4991711;28;20242;-84
2022/09/23 08:54:48;;;;;;;5.40;4.10;;;;;;;-141.97;38.93;47496.00;4992546;28;20257;-85
2022/09/23 08:57:33;;;;;;;12.07;9.00;;;;;;;-141.97;38.47;47515.22;4975826;28;20703;-85
2022/09/23 09:00:00;;;;;;;6.57;4.47;;;;;;;-141.97;38.13;47492.16;4992016;28;20191;-85
2022/09/23 09:02:27;;;;;;;5.90;4.40;;;;;;;-141.97;38.67;47665.16;4992068;28;20606;-85
2022/09/23 09:05:02;;;;;;;5.57;4.37;;;;;;;-141.97;38.52;47522.91;4991781;28;20163;-85
2022/09/23 09:07:33;;;;;;;5.37;4.20;;;;;;;-141.97;38.33;47532.53;4991699;28;20190;-86
2022/09/23 09:10:06;;;;;;;10.53;5.93;;;;;;;-141.97;37.16;47471.03;4991916;28;20258;-86
2022/09/23 09:12:47;;;;;;;4.93;4.10;;;;;;;-141.97;36.35;47505.63;4992125;28;20160;-86
2022/09/23 09:15:22;;;;;;;6.00;4.30;;;;;;;-141.97;36.58;47474.88;4991407;28;20341;-87
2022/09/23 09:18:11;;;;;;;5.27;4.13;;;;;;;-141.97;36.33;47465.25;4991244;28;20262;-86
2022/09/23 09:20:50;;;;;;;3.90;3.50;;;;;;;-141.97;35.78;47465.25;4991908;28;20230;-85
2022/09/23 09:23:39;;;;;;;3.90;3.50;;;;;;;-141.97;34.88;47476.78;4993327;28;20176;-86
2022/09/23 09:26:05;;;;;;;5.70;4.00;;;;;;;-141.97;34.59;47463.34;4999660;28;20186;-86
2022/09/23 09:28:50;;;;;;;6.53;3.50;;;;;;;-141.97;33.98;47497.94;5012203;28;20174;-86
2022/09/23 09:31:25;;;;;;;5.13;3.33;;;;;;;-141.97;34.50;47463.34;5012340;28;20214;-86
2022/09/23 09:34:05;;;;;;;3.30;2.90;;;;;;;-141.97;34.16;47461.41;5012537;28;20166;-86
2022/09/23 09:36:36;;;;;;;4.23;3.20;;;;;;;-141.97;34.04;47484.47;5011992;28;20541;-86
2022/09/23 09:39:03;;;;;;;3.93;2.87;;;;;;;-141.97;34.78;47411.44;5016123;28;20221;-85
2022/09/23 09:41:31;;;;;;;5.37;3.20;;;;;;;-141.97;34.89;47515.22;5014684;28;20293;-86
2022/09/23 09:44:02;;;;;;;12.77;8.50;;;;;;;-141.97;34.24;47490.25;5016351;28;20159;-85
2022/09/23 09:46:39;;;;;;;3.60;3.30;;;;;;;-141.97;33.59;47480.63;5017769;28;20166;-85
2022/09/23 09:49:34;;;;;;;4.60;3.20;;;;;;;-141.97;33.40;47449.88;5017882;28;20162;-85
2022/09/23 09:52:21;;;;;;;4.20;3.80;;;;;;;-141.97;33.07;47474.88;5016075;28;20514;-85
2022/09/23 09:54:48;;;;;;;9.13;2.90;;;;;;;-141.97;33.36;47490.25;5014444;28;20253;-86
2022/09/23 09:57:37;;;;;;;3.10;2.70;;;;;;;-141.97;33.38;47474.88;5016131;28;20180;-86
2022/09/23 10:00:20;;;;;;;7.70;4.07;;;;;;;-141.97;33.11;47480.63;4995752;28;20287;-86
2022/09/23 10:02:52;;;;;;;4.80;3.80;;;;;;;-141.97;32.51;47484.47;4995041;28;20272;-86
2022/09/23 10:05:44;;;;;;;2.90;2.60;;;;;;;-141.97;31.24;47494.09;4994742;28;20194;-87
2022/09/23 10:08:26;;;;;;;4.33;3.13;;;;;;;-141.97;32.67;47480.63;4994420;28;20329;-86
2022/09/23 10:11:17;;;;;;;4.17;2.23;;;;;;;-141.97;32.57;47471.03;4995205;28;20191;-87
2022/09/23 10:14:12;;;;;;;6.50;3.60;;;;;;;-141.97;32.75;47472.94;4996081;28;20167;-86
2022/09/23 10:16:40;;;;;;;4.37;2.90;;;;;;;-141.97;32.68;47469.09;4995137;28;20780;-85
2022/09/23 10:19:21;;;;;;;4.00;3.23;;;;;;;-141.97;32.58;47465.25;4998074;28;20183;-86
2022/09/23 10:21:53;;;;;;;3.87;2.70;;;;;;;-141.97;32.47;47469.09;4994847;28;20206;-87
2022/09/23 10:24:22;;;;;;;4.60;2.90;;;;;;;-141.97;32.31;47467.19;4995387;28;20191;-86
2022/09/23 10:27:08;;;;;;;3.23;2.70;;;;;;;-141.97;32.10;47519.06;4995663;28;20171;-87
2022/09/23 10:29:39;;;;;;;4.53;2.57;;;;;;;-141.97;32.51;47449.88;4994449;28;20167;-87
2022/09/23 10:32:35;;;;;;;4.73;2.40;;;;;;;-141.97;31.85;47467.19;4995241;28;20164;-86
2022/09/23 10:35:21;;;;;;;4.90;2.70;;;;;;;-141.97;32.00;47465.25;4978415;28;20171;-86
2022/09/23 10:37:54;;;;;;;4.33;2.60;;;;;;;-141.97;32.05;47444.13;5011933;28;20252;-86
2022/09/23 10:46:38;;;;;;;2.47;2.20;;;;;;;-141.97;31.36;47480.63;5016679;28;20170;-87
2022/09/23 10:49:08;;;;;;;3.53;2.27;;;;;;;-141.97;31.05;47503.69;5020355;28;20297;-86
2022/09/23 10:52:04;;;;;;;4.60;2.80;;;;;;;-141.97;30.75;47472.94;5016639;28;20150;-86
2022/09/23 10:54:50;;;;;;;2.90;2.20;;;;;;;-141.97;30.66;47411.44;5016327;28;20247;-86
2022/09/23 10:57:40;;;;;;;2.27;2.07;;;;;;;-141.97;30.57;47426.81;5015764;28;20218;-86
2022/09/23 11:00:22;;;;;;;2.43;2.20;;;;;;;-141.97;31.29;47476.78;5015780;28;20557;-86
2022/09/23 11:02:56;;;;;;;3.70;2.47;;;;;;;-141.97;31.29;47467.19;5015752;28;20170;-86
2022/09/23 11:05:37;;;;;;;2.63;2.20;;;;;;;-141.97;30.71;47480.63;5016502;28;20159;-86
2022/09/23 11:08:05;;;;;;;5.40;2.20;;;;;;;-141.97;30.24;47467.19;5015494;28;20567;-87
2022/09/23 11:10:49;;;;;;;5.43;3.17;;;;;;;-141.97;30.10;47480.63;5015063;28;20190;-86
2022/09/23 11:13:43;;;;;;;2.20;2.00;;;;;;;-141.97;29.75;47471.03;5015564;28;20174;-86
2022/09/23 11:16:21;;;;;;;3.07;2.20;;;;;;;-141.97;29.93;47492.16;5015371;28;20234;-88
2022/09/23 11:19:01;;;;;;;2.23;2.03;;;;;;;-141.97;30.05;47440.28;5015860;28;20176;-86
2022/09/23 11:21:51;;;;;;;3.70;2.13;;;;;;;-141.97;30.61;47469.09;5016621;28;21023;-86
2022/09/23 11:24:35;;;;;;;4.10;2.43;;;;;;;-141.97;31.00;47503.69;5016444;28;20167;-87
2022/09/23 11:27:03;;;;;;;2.63;2.00;;;;;;;-141.97;30.28;47446.03;5017233;28;20186;-90
2022/09/23 11:29:35;;;;;;;2.87;2.43;;;;;;;-141.97;30.54;47476.78;5017845;28;20499;-86
2022/09/23 11:32:13;;;;;;;2.77;2.10;;;;;;;-141.97;29.79;47442.19;5014889;28;20175;-86
2022/09/23 11:34:56;;;;;;;2.40;2.20;;;;;;;-141.97;29.42;47426.81;5017695;28;20166;-86
2022/09/23 11:37:27;;;;;;;2.20;1.80;;;;;;;-141.97;29.61;47609.41;5018570;28;20222;-86
2022/09/23 11:40:06;;;;;;;4.63;3.20;;;;;;;-141.97;29.41;47484.47;5015499;28;20162;-86
2022/09/23 11:42:42;;;;;;;2.93;2.63;;;;;;;-141.97;29.23;47480.63;5014887;28;20173;-86
2022/09/23 11:45:18;;;;;;;4.17;3.40;;;;;;;-141.97;29.25;47480.63;5015998;28;20623;-87